Last 24 Hours

Ukiah-SE (Ruddick)

Hourly Data | America/Los_Angeles
as of 5/6/26 8:03 PM PDT
Date & Time Temp (°F) RH (%) Dew Pt (°F) Wet Bulb (°F) Wind Dir (°) Wind Spd (mph) Wind Gust (mph) Solar Rad (W/m2) Leaf Wet (mins) Latest Rain (In) Daily Rain (In) Daily Min Temp (°F) Daily Max Temp (°F) Daily Leaf Wet (Hrs) Daily ETo (in)
5/6/26 - 2000 69.1 53 51.3 58.7 N | 1 9.8 14.9 66 0.0 0.00 0.00 54.5 81.0 0.0 0.182
5/6/26 - 1900 73.5 48 52.5 60.5 N | 357 9.4 14.8 232 0.0 0.00 0.00 54.5 81.0 0.0 0.179
5/6/26 - 1800 75.5 47 54.1 62.0 NNW | 334 10.2 16.5 403 0.0 0.00 0.00 54.5 81.0 0.0 0.170
5/6/26 - 1700 77.0 46 54.9 62.8 NNW | 329 11.3 17.4 560 0.0 0.00 0.00 54.5 81.0 0.0 0.156
5/6/26 - 1600 79.5 44 55.5 63.7 NNW | 334 6.9 14.6 690 0.0 0.00 0.00 54.5 81.0 0.0 0.138
5/6/26 - 1500 77.8 43 53.3 62.0 WNW | 302 2.5 7.7 778 0.0 0.00 0.00 54.5 79.7 0.0 0.118
5/6/26 - 1400 75.2 43 51.4 60.3 NNW | 336 3.0 8.1 818 0.0 0.00 0.00 54.5 77.0 0.0 0.096
5/6/26 - 1300 72.7 47 51.6 59.9 ESE | 118 1.8 4.6 812 0.0 0.00 0.00 54.5 75.3 0.0 0.074
5/6/26 - 1200 69.4 53 51.4 58.9 NE | 52 1.9 6.4 757 0.0 0.00 0.00 54.5 70.2 0.0 0.053
5/6/26 - 1100 65.5 60 51.4 57.7 NW | 310 1.8 5.9 654 0.0 0.00 0.00 54.5 67.8 0.0 0.033
5/6/26 - 1000 61.7 67 50.7 56.0 WNW | 296 1.9 4.9 502 0.0 0.00 0.00 54.5 63.7 0.0 0.018
5/6/26 - 0900 57.8 75 49.8 54.0 N | 357 2.3 4.9 196 0.0 0.00 0.00 54.5 59.4 0.0 0.007
5/6/26 - 0800 55.8 80 49.6 53.1 NNW | 341 2.7 5.6 76 0.0 0.00 0.00 54.5 56.7 0.0 0.003
5/6/26 - 0700 55.0 82 49.6 52.8 N | 349 2.9 4.9 11 0.0 0.00 0.00 54.5 55.4 0.0 0.001
5/6/26 - 0600 55.0 82 49.7 52.8 N | 353 3.2 4.9 0 0.0 0.00 0.00 54.5 55.4 0.0 0.000
5/6/26 - 0500 55.1 81 49.3 52.6 NNW | 344 1.6 3.8 0 0.0 0.00 0.00 54.5 55.4 0.0 0.000
5/6/26 - 0400 55.2 79 49.0 52.5 NNE | 13 1.1 3.2 0 0.0 0.00 0.00 54.5 55.4 0.0 0.000
5/6/26 - 0300 54.8 80 48.8 52.2 NNW | 345 2.1 4.3 0 0.0 0.00 0.00 54.5 55.1 0.0 0.000
5/6/26 - 0200 54.6 80 48.7 52.1 NNW | 331 3.5 6.4 0 0.0 0.00 0.00 54.5 54.9 0.0 0.000
5/6/26 - 0100 55.0 79 48.8 52.3 NNW | 343 4.1 6.8 0 0.0 0.00 0.00 51.7 72.3 0.0 0.154
5/6/26 - 0000 55.1 79 48.8 52.4 NNW | 337 3.9 6.4 0 0.0 0.00 0.00 51.7 72.3 0.0 0.153
5/5/26 - 2300 55.6 77 48.7 52.5 N | 356 5.1 8.5 0 0.0 0.00 0.00 51.7 72.3 0.0 0.153
5/5/26 - 2200 56.1 76 48.6 52.6 N | 4 5.6 10.0 0 0.0 0.00 0.00 51.7 72.3 0.0 0.153
5/5/26 - 2100 56.6 75 48.7 52.9 N | 1 6.1 10.6 2 0.0 0.00 0.00 51.7 72.3 0.0 0.152
5/5/26 - 2000 59.8 68 49.2 54.4 N | 3 8.3 14.7 71 0.0 0.00 0.00 51.7 72.3 0.0 0.151
Max 79.5 82 55.5 63.7 - 11.3 17.4 818 0.0 0.00 0.00 54.5 81.0 0.0 0.182
Avg 63.1 66 50.6 56.1 - 4.5 8.4 265 0.0 0.00 - - - - -
Min 54.6 43 48.6 52.1 - 1.1 3.2 0 0.0 0.00 0.00 51.7 54.9 0.0 0.000
Total - - - - - - - - - 0.00 - - - - -